Huvudsida
METAR-TAF:

METAR-TAF

Flygplatser :

Småland Airport

Växjö, Sverige

latitud: 56-51N, longitud: 014-50E, höjd: 199 m

Aktuellt väderrapport

Denna rapport gjordes för 41 minuter sedan, klockan 18:50 UTC
Vind 11 kt från syd/sydväst
Temperatur 11°C
Fuktighet 100%
Tryck 1019 hPa
Sikt 10 km eller mer
Mulet på en höjd av 400 ft

METAR: ESMX 211850Z 20011KT 9999 OVC004 11/11 Q1019

Tid: 21:31 (19:31 UTC)

Väderprognos

Denna rapport gjordes för 2 timmar och 1 minuter sedan, klockan 17:30 UTC
Prognos gäller från 21 kl. 18 UTC till 21 kl. 21 UTC
Vind 12 kt från syd/sydväst
Sikt 10 km eller mer
Mulet på en höjd av 600 ft
Temporärt
från 21 kl. 18 UTC till 21 kl. 21 UTC
Sikt: 4000 m
Brutna moln på en höjd av 400 ft
fuktdis, lätt duggregn

TAF: ESMX 211730Z 2118/2121 21012KT 9999 OVC006 TEMPO 2118/2121 4000 BR -DZ BKN004

Aktuella väderrapporter och prognoser från 4000 flygplatser (METAR- och TAF-rapporter).

De tillgängliga stationerna syns som gula och röda prickar på kartan.

För musen över prickarna för att se namnen på stationerna.

Klicka sedan för att få väderrapporter och prognoser.

För att ändra kartan: Klicka på de gröna knapparna med ett svart kors på för att zooma in; den gröna knappen med ett streck på för att zooma ut; eller på de gröna pilarna för angränsande kartor.


METAR-TAF: